createdAt,value
2022-08-02T00:00:56.712Z,22.50
2022-08-02T00:03:24.687Z,22.60
2022-08-02T00:05:53.339Z,22.60
2022-08-02T00:08:21.993Z,22.50
2022-08-02T00:10:49.331Z,22.30
2022-08-02T00:13:16.236Z,22.40
2022-08-02T00:15:43.152Z,22.30
2022-08-02T00:18:10.031Z,22.30
2022-08-02T00:20:37.137Z,22.30
2022-08-02T00:23:04.141Z,22.20
2022-08-02T00:25:31.046Z,22.10
2022-08-02T00:27:57.989Z,22.20
2022-08-02T00:30:25.133Z,22.10
2022-08-02T00:32:52.222Z,22.00
2022-08-02T00:35:19.350Z,22.10
2022-08-02T00:37:46.220Z,22.00
2022-08-02T00:40:13.420Z,21.90
2022-08-02T00:42:40.791Z,22.00
2022-08-02T00:45:08.652Z,21.90
2022-08-02T00:47:35.990Z,21.70
2022-08-02T00:50:03.513Z,21.80
2022-08-02T00:52:30.499Z,21.70
2022-08-02T00:54:57.409Z,21.60
2022-08-02T00:57:24.368Z,21.60
2022-08-02T00:59:51.284Z,21.60
2022-08-02T01:02:18.254Z,21.70
2022-08-02T01:04:45.522Z,21.70
2022-08-02T01:07:14.478Z,21.60
2022-08-02T01:09:43.529Z,21.50
2022-08-02T01:12:11.653Z,21.30
2022-08-02T01:14:42.399Z,21.20
2022-08-02T01:17:27.590Z,21.40
2022-08-02T01:20:25.290Z,21.20
2022-08-02T01:23:48.192Z,21.10
2022-08-02T01:26:49.150Z,21.20
2022-08-02T01:29:31.759Z,21.20
2022-08-02T01:32:21.070Z,20.90
2022-08-02T01:35:07.646Z,20.90
2022-08-02T01:37:44.703Z,21.00
2022-08-02T01:40:36.463Z,21.10
2022-08-02T01:43:05.000Z,21.20
2022-08-02T01:45:35.595Z,21.30
2022-08-02T01:48:05.073Z,21.20
2022-08-02T01:50:34.883Z,21.20
2022-08-02T01:53:06.975Z,21.20
2022-08-02T01:55:56.845Z,21.20
2022-08-02T01:58:30.127Z,21.10
2022-08-02T02:00:58.773Z,21.00
2022-08-02T02:03:27.927Z,20.90
2022-08-02T02:05:58.058Z,20.90
2022-08-02T02:08:41.830Z,21.00
2022-08-02T02:12:10.115Z,20.90
2022-08-02T02:14:01.219Z,21.00
2022-08-02T02:16:30.478Z,20.90
2022-08-02T02:19:00.382Z,20.80
2022-08-02T02:21:27.349Z,20.80
2022-08-02T02:23:54.364Z,20.80
2022-08-02T02:26:29.756Z,20.80
2022-08-02T02:29:02.726Z,20.70
2022-08-02T02:31:35.645Z,20.50
2022-08-02T02:34:25.512Z,20.40
2022-08-02T02:36:53.308Z,20.30
2022-08-02T02:39:24.232Z,20.30
2022-08-02T02:41:53.455Z,20.30
2022-08-02T02:44:22.762Z,20.30
2022-08-02T02:46:54.770Z,20.30
2022-08-02T02:49:23.639Z,20.30
2022-08-02T02:51:52.400Z,20.30
2022-08-02T02:54:30.344Z,20.30
2022-08-02T02:57:03.841Z,20.30
2022-08-02T02:59:31.074Z,20.20
2022-08-02T03:01:58.969Z,20.00
2022-08-02T03:04:56.209Z,19.90
2022-08-02T03:07:15.857Z,19.90
2022-08-02T03:09:42.989Z,19.80
2022-08-02T03:12:10.765Z,19.80
2022-08-02T03:14:43.600Z,19.80
2022-08-02T03:17:10.668Z,19.80
2022-08-02T03:19:37.922Z,19.80
2022-08-02T03:22:04.948Z,19.80
2022-08-02T03:24:32.642Z,19.80
2022-08-02T03:26:59.675Z,19.80
2022-08-02T03:29:26.596Z,19.70
2022-08-02T03:31:54.061Z,19.70
2022-08-02T03:34:21.771Z,19.70
2022-08-02T03:36:52.807Z,19.70
2022-08-02T03:39:20.788Z,19.70
2022-08-02T03:41:49.805Z,19.50
2022-08-02T03:44:18.469Z,19.30
2022-08-02T03:46:45.935Z,19.40
2022-08-02T03:49:16.762Z,19.40
2022-08-02T03:51:45.417Z,19.30
2022-08-02T03:54:13.487Z,19.20
2022-08-02T03:56:40.465Z,19.10
2022-08-02T03:59:13.806Z,19.10
2022-08-02T04:01:41.325Z,19.00
2022-08-02T04:04:08.827Z,19.10
2022-08-02T04:06:35.948Z,19.00
2022-08-02T04:09:07.656Z,19.00
2022-08-02T04:11:34.647Z,19.00
2022-08-02T04:14:12.402Z,19.00
2022-08-02T04:16:59.841Z,18.90
2022-08-02T04:19:53.590Z,18.80
2022-08-02T04:22:30.959Z,18.80
2022-08-02T04:25:03.803Z,18.80
2022-08-02T04:27:51.395Z,18.60
2022-08-02T04:30:20.414Z,18.60
2022-08-02T04:32:47.553Z,18.50
2022-08-02T04:35:19.819Z,18.40
2022-08-02T04:38:08.798Z,18.50
2022-08-02T04:40:35.751Z,18.60
2022-08-02T04:43:02.868Z,18.60
2022-08-02T04:45:31.109Z,18.50
2022-08-02T04:48:06.097Z,18.60
2022-08-02T04:50:34.673Z,18.50
2022-08-02T04:53:02.068Z,18.60
2022-08-02T04:55:30.012Z,18.60
2022-08-02T04:57:58.777Z,18.50
2022-08-02T05:00:29.267Z,18.50
2022-08-02T05:02:57.723Z,18.40
2022-08-02T05:05:25.079Z,18.40
2022-08-02T05:07:52.538Z,18.30
2022-08-02T05:10:19.916Z,18.40
2022-08-02T05:12:46.967Z,18.40
2022-08-02T05:15:16.761Z,18.50
2022-08-02T05:17:47.594Z,18.40
2022-08-02T05:20:18.975Z,18.50
2022-08-02T05:22:46.572Z,18.50
2022-08-02T05:25:13.769Z,18.50
2022-08-02T05:27:40.902Z,18.50
2022-08-02T05:30:08.992Z,18.60
2022-08-02T05:32:47.257Z,18.70
2022-08-02T05:35:17.770Z,18.60
2022-08-02T05:37:44.701Z,18.60
2022-08-02T05:40:16.087Z,18.60
2022-08-02T05:42:43.278Z,18.50
2022-08-02T05:45:11.276Z,18.60
2022-08-02T05:47:38.657Z,18.50
2022-08-02T05:50:08.244Z,18.60
2022-08-02T05:53:05.069Z,18.60
2022-08-02T05:55:43.241Z,18.60
2022-08-02T05:58:33.577Z,18.60
2022-08-02T06:01:04.047Z,18.70
2022-08-02T06:03:52.342Z,18.70
2022-08-02T06:06:25.035Z,18.80
2022-08-02T06:09:27.036Z,18.70
2022-08-02T06:12:02.106Z,18.80
2022-08-02T06:14:33.544Z,18.80
2022-08-02T06:17:05.914Z,18.80
2022-08-02T06:19:46.944Z,18.90
2022-08-02T06:22:35.356Z,18.90
2022-08-02T06:25:11.753Z,18.90
2022-08-02T06:27:56.566Z,18.90
2022-08-02T06:30:23.782Z,18.90
2022-08-02T06:32:53.949Z,19.00
2022-08-02T06:35:21.267Z,19.00
2022-08-02T06:37:58.606Z,19.00
2022-08-02T06:40:48.402Z,19.00
2022-08-02T06:43:42.480Z,19.10
2022-08-02T06:46:34.160Z,19.00
2022-08-02T06:48:57.554Z,19.10
2022-08-02T06:51:24.510Z,19.10
2022-08-02T06:53:51.432Z,19.20
2022-08-02T06:56:19.351Z,19.20
2022-08-02T06:58:46.300Z,19.20
2022-08-02T07:01:13.689Z,19.20
2022-08-02T07:03:42.660Z,19.30
2022-08-02T07:06:09.798Z,19.30
2022-08-02T07:08:38.599Z,19.30
2022-08-02T07:11:10.103Z,19.30
2022-08-02T07:13:39.823Z,19.40
2022-08-02T07:16:08.096Z,19.40
2022-08-02T07:18:39.472Z,19.40
2022-08-02T07:21:08.860Z,19.50
2022-08-02T07:23:35.931Z,19.60
2022-08-02T07:26:05.911Z,19.60
2022-08-02T07:28:34.245Z,19.60
2022-08-02T07:31:01.582Z,19.70
2022-08-02T07:33:37.644Z,19.80
2022-08-02T07:36:09.826Z,19.80
2022-08-02T07:38:44.086Z,19.90
2022-08-02T07:41:12.878Z,20.00
2022-08-02T07:43:39.876Z,20.10
2022-08-02T07:46:06.760Z,20.00
2022-08-02T07:48:33.935Z,20.10
2022-08-02T07:51:01.167Z,20.10
2022-08-02T07:53:49.882Z,20.20
2022-08-02T07:56:16.328Z,20.30
2022-08-02T07:58:43.407Z,20.40
2022-08-02T08:01:10.824Z,20.40
2022-08-02T08:03:39.043Z,20.50
2022-08-02T08:06:06.066Z,20.60
2022-08-02T08:08:35.627Z,20.60
2022-08-02T08:11:02.663Z,20.70
2022-08-02T08:13:29.650Z,20.80
2022-08-02T08:15:56.830Z,20.80
2022-08-02T08:18:23.846Z,20.90
2022-08-02T08:20:52.162Z,21.00
2022-08-02T08:23:19.271Z,21.10
2022-08-02T08:25:46.282Z,21.40
2022-08-02T08:28:13.881Z,21.70
2022-08-02T08:30:41.981Z,21.80
2022-08-02T08:33:09.661Z,21.90
2022-08-02T08:35:36.707Z,22.10
2022-08-02T08:38:07.524Z,22.20
2022-08-02T08:40:37.226Z,22.40
2022-08-02T08:43:05.467Z,22.50
2022-08-02T08:45:32.573Z,22.70
2022-08-02T08:48:07.256Z,22.80
2022-08-02T08:50:37.232Z,22.90
2022-08-02T08:53:06.991Z,23.20
2022-08-02T08:55:37.749Z,23.40
2022-08-02T08:58:13.147Z,23.50
2022-08-02T09:00:41.620Z,23.40
2022-08-02T09:03:10.014Z,23.40
2022-08-02T09:05:39.955Z,23.40
2022-08-02T09:08:07.646Z,23.40
2022-08-02T09:10:48.985Z,23.50
2022-08-02T09:13:38.254Z,23.50
2022-08-02T09:16:12.487Z,23.60
2022-08-02T09:18:47.709Z,23.70
2022-08-02T09:21:18.245Z,23.80
2022-08-02T09:23:51.618Z,23.80
2022-08-02T09:26:24.429Z,23.80
2022-08-02T09:28:59.849Z,23.80
2022-08-02T09:31:26.967Z,24.00
2022-08-02T09:33:59.900Z,24.10
2022-08-02T09:36:55.680Z,24.10
2022-08-02T09:39:24.002Z,24.20
2022-08-02T09:41:51.042Z,24.10
2022-08-02T09:44:17.939Z,24.30
2022-08-02T09:46:46.496Z,24.40
2022-08-02T09:49:18.055Z,24.40
2022-08-02T09:51:50.768Z,24.40
2022-08-02T09:54:30.770Z,24.40
2022-08-02T09:57:00.858Z,24.50
2022-08-02T09:59:29.398Z,24.60
2022-08-02T10:02:02.406Z,24.80
2022-08-02T10:04:34.185Z,24.70
2022-08-02T10:07:05.696Z,24.60
2022-08-02T10:09:33.557Z,24.70
2022-08-02T10:12:03.494Z,24.70
2022-08-02T10:14:35.671Z,24.80
2022-08-02T10:17:05.196Z,24.70
2022-08-02T10:20:01.949Z,24.70
2022-08-02T10:22:20.256Z,24.80
2022-08-02T10:24:48.889Z,24.90
2022-08-02T10:27:21.502Z,24.90
2022-08-02T10:29:54.973Z,25.10
2022-08-02T10:32:25.179Z,25.30
2022-08-02T10:35:21.718Z,25.40
2022-08-02T10:38:08.153Z,25.50
2022-08-02T10:40:48.139Z,25.50
2022-08-02T10:43:37.008Z,25.60
2022-08-02T10:46:34.648Z,25.60
2022-08-02T10:49:40.105Z,25.50
2022-08-02T10:52:09.454Z,25.50
2022-08-02T10:55:13.478Z,25.70
2022-08-02T10:57:42.089Z,25.90
2022-08-02T11:00:26.630Z,26.10
2022-08-02T11:02:54.138Z,26.10
2022-08-02T11:05:43.411Z,26.10
2022-08-02T11:08:22.347Z,26.10
2022-08-02T11:10:49.441Z,26.10
2022-08-02T11:13:21.482Z,26.30
2022-08-02T11:15:53.575Z,26.30
2022-08-02T11:18:22.141Z,26.40
2022-08-02T11:21:25.952Z,26.60
2022-08-02T11:23:54.228Z,26.60
2022-08-02T11:26:33.346Z,26.60
2022-08-02T11:29:04.421Z,26.60
2022-08-02T11:31:41.231Z,26.60
2022-08-02T11:34:09.960Z,26.80
2022-08-02T11:36:53.393Z,26.90
2022-08-02T11:39:23.454Z,27.00
2022-08-02T11:41:57.867Z,27.10
2022-08-02T11:44:29.036Z,27.10
2022-08-02T11:46:57.573Z,27.30
2022-08-02T11:49:25.556Z,27.30
2022-08-02T11:51:54.862Z,27.40
2022-08-02T11:54:36.642Z,27.40
2022-08-02T11:57:22.754Z,27.50
2022-08-02T11:59:53.109Z,27.70
2022-08-02T12:02:29.809Z,27.70
2022-08-02T12:05:08.797Z,27.90
2022-08-02T12:07:46.160Z,28.00
2022-08-02T12:10:20.229Z,28.10
2022-08-02T12:12:48.006Z,28.20
2022-08-02T12:15:37.861Z,28.30
2022-08-02T12:18:33.122Z,28.30
2022-08-02T12:21:01.021Z,28.40
2022-08-02T12:23:29.083Z,28.50
2022-08-02T12:26:15.874Z,28.70
2022-08-02T12:28:44.497Z,28.90
2022-08-02T12:31:16.201Z,29.00
2022-08-02T12:33:54.608Z,29.00
2022-08-02T12:36:31.010Z,29.00
2022-08-02T12:39:00.971Z,29.00
2022-08-02T12:41:32.462Z,29.10
2022-08-02T12:44:00.648Z,29.20
2022-08-02T12:46:29.510Z,29.20
2022-08-02T12:49:16.536Z,29.20
2022-08-02T12:51:58.999Z,29.30
2022-08-02T12:54:36.116Z,29.50
2022-08-02T12:57:18.871Z,29.60
2022-08-02T12:59:53.739Z,29.90
2022-08-02T13:02:21.645Z,30.00
2022-08-02T13:04:51.010Z,29.90
2022-08-02T13:07:20.075Z,30.20
2022-08-02T13:09:48.475Z,30.30
2022-08-02T13:12:16.389Z,30.30
2022-08-02T13:14:45.476Z,30.30
2022-08-02T13:17:12.685Z,30.60
2022-08-02T13:19:44.691Z,30.50
2022-08-02T13:22:11.843Z,30.70
2022-08-02T13:24:56.014Z,30.80
2022-08-02T13:27:28.629Z,30.70
2022-08-02T13:29:57.277Z,31.00
2022-08-02T13:32:25.766Z,31.10
2022-08-02T13:34:52.789Z,31.40
2022-08-02T13:37:19.876Z,31.50
2022-08-02T13:40:05.623Z,31.30
2022-08-02T13:42:34.496Z,31.30
2022-08-02T13:45:11.825Z,31.30
2022-08-02T13:48:04.697Z,31.40
2022-08-02T13:50:30.360Z,31.60
2022-08-02T13:52:57.355Z,31.40
2022-08-02T13:55:24.496Z,31.40
2022-08-02T13:57:53.504Z,31.60
2022-08-02T14:00:34.601Z,31.70
2022-08-02T14:03:07.276Z,31.70
2022-08-02T14:05:47.507Z,31.80
2022-08-02T14:08:18.094Z,32.00
2022-08-02T14:10:49.787Z,32.10
2022-08-02T14:13:17.876Z,32.10
2022-08-02T14:15:44.960Z,32.20
2022-08-02T14:18:14.700Z,32.00
2022-08-02T14:20:44.089Z,32.30
2022-08-02T14:23:12.640Z,32.60
2022-08-02T14:25:40.064Z,32.70
2022-08-02T14:28:07.543Z,32.70
2022-08-02T14:30:34.879Z,32.80
2022-08-02T14:33:03.115Z,32.60
2022-08-02T14:35:30.425Z,32.50
2022-08-02T14:37:57.803Z,32.50
2022-08-02T14:40:30.893Z,32.70
2022-08-02T14:43:00.957Z,32.70
2022-08-02T14:45:36.638Z,32.80
2022-08-02T14:48:07.581Z,32.80
2022-08-02T14:50:34.542Z,32.70
2022-08-02T14:53:01.567Z,32.60
2022-08-02T14:55:28.461Z,32.70
2022-08-02T14:57:55.397Z,32.60
2022-08-02T15:00:22.410Z,33.10
2022-08-02T15:02:49.442Z,33.10
2022-08-02T15:05:16.416Z,32.90
2022-08-02T15:07:47.809Z,33.20
2022-08-02T15:10:16.439Z,33.50
2022-08-02T15:12:45.797Z,33.40
2022-08-02T15:15:12.742Z,33.50
2022-08-02T15:17:40.065Z,33.40
2022-08-02T15:20:25.843Z,33.20
2022-08-02T15:22:53.298Z,33.30
2022-08-02T15:25:21.922Z,33.20
2022-08-02T15:27:48.893Z,33.50
2022-08-02T15:30:16.040Z,33.50
2022-08-02T15:32:53.231Z,33.80
2022-08-02T15:35:21.146Z,33.90
2022-08-02T15:37:50.466Z,34.30
2022-08-02T15:40:18.059Z,34.30
2022-08-02T15:42:44.969Z,34.30
2022-08-02T15:45:15.383Z,34.20
2022-08-02T15:47:48.155Z,34.60
2022-08-02T15:50:18.121Z,34.90
2022-08-02T15:52:45.107Z,34.50
2022-08-02T15:55:12.153Z,34.50
2022-08-02T15:57:39.070Z,34.50
2022-08-02T16:00:17.838Z,34.80
2022-08-02T16:02:46.939Z,34.70
2022-08-02T16:05:18.063Z,34.60
2022-08-02T16:07:47.813Z,34.70
2022-08-02T16:10:16.434Z,34.90
2022-08-02T16:12:43.880Z,35.10
2022-08-02T16:15:12.491Z,35.00
2022-08-02T16:17:53.671Z,35.20
2022-08-02T16:20:23.176Z,34.80
2022-08-02T16:22:50.124Z,35.10
2022-08-02T16:25:17.665Z,35.30
2022-08-02T16:27:57.793Z,35.10
2022-08-02T16:30:32.234Z,35.30
2022-08-02T16:32:59.203Z,35.90
2022-08-02T16:35:28.475Z,35.80
2022-08-02T16:37:55.633Z,35.90
2022-08-02T16:40:22.993Z,35.60
2022-08-02T16:42:51.027Z,35.10
2022-08-02T16:45:21.034Z,35.10
2022-08-02T16:47:55.843Z,35.20
2022-08-02T16:50:28.735Z,35.60
2022-08-02T16:52:57.981Z,35.60
2022-08-02T16:55:25.815Z,35.30
2022-08-02T16:57:56.937Z,35.60
2022-08-02T17:00:24.316Z,35.60
2022-08-02T17:02:51.248Z,35.50
2022-08-02T17:05:18.957Z,35.20
2022-08-02T17:08:08.156Z,35.50
2022-08-02T17:10:38.773Z,35.60
2022-08-02T17:13:11.688Z,35.80
2022-08-02T17:16:07.943Z,35.70
2022-08-02T17:18:28.935Z,35.40
2022-08-02T17:20:56.474Z,35.30
2022-08-02T17:23:23.579Z,35.50
2022-08-02T17:26:10.491Z,35.20
2022-08-02T17:28:50.825Z,35.50
2022-08-02T17:31:29.720Z,36.00
2022-08-02T17:33:57.281Z,35.50
2022-08-02T17:36:26.109Z,35.10
2022-08-02T17:38:53.068Z,35.00
2022-08-02T17:41:20.087Z,34.70
2022-08-02T17:44:06.384Z,34.80
2022-08-02T17:46:36.095Z,34.90
2022-08-02T17:49:16.932Z,34.70
2022-08-02T17:52:47.934Z,34.50
2022-08-02T17:54:33.263Z,34.60
2022-08-02T17:57:00.113Z,34.60
2022-08-02T17:59:31.282Z,34.50
2022-08-02T18:02:15.224Z,34.30
2022-08-02T18:04:42.339Z,33.90
2022-08-02T18:07:13.246Z,34.20
2022-08-02T18:09:50.771Z,34.40
2022-08-02T18:12:20.514Z,34.30
2022-08-02T18:14:49.139Z,34.20
2022-08-02T18:17:16.881Z,34.00
2022-08-02T18:19:56.393Z,34.00
2022-08-02T18:22:26.896Z,34.20
2022-08-02T18:24:54.507Z,33.80
2022-08-02T18:27:21.763Z,33.80
2022-08-02T18:30:03.980Z,34.00
2022-08-02T18:33:54.641Z,34.10
2022-08-02T18:35:25.958Z,34.00
2022-08-02T18:37:57.383Z,33.70
2022-08-02T18:40:27.964Z,33.70
2022-08-02T18:42:54.870Z,33.90
2022-08-02T18:45:21.886Z,33.70
2022-08-02T18:47:50.735Z,33.50
2022-08-02T18:50:19.943Z,33.60
2022-08-02T18:52:48.069Z,33.60
2022-08-02T18:55:17.287Z,33.60
2022-08-02T18:58:17.625Z,33.50
2022-08-02T19:00:37.570Z,33.50
2022-08-02T19:03:04.638Z,33.20
2022-08-02T19:05:51.550Z,33.10
2022-08-02T19:08:19.194Z,33.10
2022-08-02T19:10:53.105Z,33.20
2022-08-02T19:13:23.385Z,33.20
2022-08-02T19:15:50.559Z,33.20
2022-08-02T19:18:17.506Z,33.20
2022-08-02T19:20:47.474Z,33.10
2022-08-02T19:23:17.383Z,33.00
2022-08-02T19:25:50.293Z,33.10
2022-08-02T19:28:26.146Z,33.00
2022-08-02T19:30:54.940Z,32.90
2022-08-02T19:34:05.870Z,32.70
2022-08-02T19:36:17.000Z,32.80
2022-08-02T19:38:45.414Z,32.40
2022-08-02T19:41:13.747Z,32.40
2022-08-02T19:44:25.452Z,32.40
2022-08-02T19:46:29.960Z,32.40
2022-08-02T19:48:57.371Z,32.40
2022-08-02T19:51:49.789Z,32.20
2022-08-02T19:54:12.143Z,32.20
2022-08-02T19:56:40.494Z,32.10
2022-08-02T19:59:13.851Z,32.10
2022-08-02T20:01:48.460Z,31.80
2022-08-02T20:04:22.865Z,31.90
2022-08-02T20:06:50.863Z,31.90
2022-08-02T20:09:21.531Z,31.80
2022-08-02T20:11:54.347Z,31.70
2022-08-02T20:14:27.697Z,31.60
2022-08-02T20:16:58.344Z,31.50
2022-08-02T20:19:29.586Z,31.40
2022-08-02T20:22:00.064Z,31.50
2022-08-02T20:24:28.518Z,31.30
2022-08-02T20:26:58.958Z,31.10
2022-08-02T20:29:43.305Z,30.60
2022-08-02T20:32:22.826Z,30.50
2022-08-02T20:34:50.356Z,30.30
2022-08-02T20:37:59.192Z,30.20
2022-08-02T20:40:06.135Z,29.90
2022-08-02T20:42:34.626Z,29.70
2022-08-02T20:45:02.226Z,29.90
2022-08-02T20:47:39.156Z,29.70
2022-08-02T20:50:31.744Z,29.70
2022-08-02T20:53:04.302Z,29.40
2022-08-02T20:55:32.330Z,29.60
2022-08-02T20:58:02.067Z,29.50
2022-08-02T21:00:31.791Z,29.20
2022-08-02T21:03:00.369Z,28.90
2022-08-02T21:05:54.551Z,28.90
2022-08-02T21:08:15.462Z,29.00
2022-08-02T21:10:50.293Z,29.00
2022-08-02T21:13:26.365Z,29.00
2022-08-02T21:15:56.967Z,29.10
2022-08-02T21:18:36.338Z,28.90
2022-08-02T21:21:08.802Z,28.70
2022-08-02T21:23:37.702Z,28.70
2022-08-02T21:26:09.077Z,28.60
2022-08-02T21:28:44.198Z,28.50
2022-08-02T21:34:02.961Z,28.30
2022-08-02T21:36:33.999Z,28.20
2022-08-02T21:39:09.122Z,28.20
2022-08-02T21:41:47.132Z,28.10
2022-08-02T21:44:20.642Z,28.10
2022-08-02T21:46:50.701Z,28.00
2022-08-02T21:49:21.013Z,28.00
2022-08-02T21:52:08.458Z,27.80
2022-08-02T21:54:40.038Z,27.50
2022-08-02T21:57:15.647Z,27.30
2022-08-02T21:59:46.184Z,27.10
2022-08-02T22:02:18.679Z,26.90
2022-08-02T22:04:47.501Z,27.00
2022-08-02T22:07:17.490Z,26.90
2022-08-02T22:09:51.742Z,27.00
2022-08-02T22:12:20.519Z,27.00
2022-08-02T22:14:54.708Z,27.00
2022-08-02T22:17:51.234Z,27.10
2022-08-02T22:20:19.806Z,27.00
2022-08-02T22:25:38.616Z,26.50
2022-08-02T22:28:38.532Z,26.60
2022-08-02T22:30:57.331Z,26.40
2022-08-02T22:33:47.001Z,26.20
2022-08-02T22:36:30.295Z,26.20
2022-08-02T22:38:57.481Z,26.20
2022-08-02T22:41:24.416Z,26.20
2022-08-02T22:43:51.389Z,25.90
2022-08-02T22:46:18.379Z,26.00
2022-08-02T22:48:45.795Z,26.00
2022-08-02T22:51:14.451Z,26.10
2022-08-02T22:53:43.911Z,26.10
2022-08-02T22:56:12.037Z,26.00
2022-08-02T22:59:10.631Z,26.70
2022-08-02T22:59:10.864Z,28.50
2022-08-02T23:01:26.808Z,26.00
2022-08-02T23:03:53.745Z,25.90
2022-08-02T23:06:22.525Z,25.80
2022-08-02T23:08:50.241Z,25.60
2022-08-02T23:11:17.292Z,25.20
2022-08-02T23:13:44.186Z,25.10
2022-08-02T23:16:29.408Z,25.00
2022-08-02T23:19:14.672Z,25.10
2022-08-02T23:22:01.408Z,25.00
2022-08-02T23:24:28.696Z,25.00
2022-08-02T23:26:55.605Z,25.00
2022-08-02T23:29:22.690Z,25.00
2022-08-02T23:31:49.881Z,24.80
2022-08-02T23:34:17.563Z,24.70
2022-08-02T23:36:44.568Z,24.50
2022-08-02T23:39:11.504Z,24.40
2022-08-02T23:41:38.449Z,24.10
2022-08-02T23:44:14.535Z,24.00
2022-08-02T23:46:46.871Z,24.00
2022-08-02T23:49:14.590Z,24.10
2022-08-02T23:51:41.943Z,24.00
2022-08-02T23:54:10.519Z,24.20
2022-08-02T23:56:38.910Z,24.30
2022-08-02T23:59:07.754Z,24.20
